Time;durP1;ratioP1;P1;durP2;ratioP2;P2;SDS_P1;SDS_P2;PMS_P1;PMS_P2;Temp;Humidity;BMP_temperature;BMP_pressure;BME280_temperature;BME280_humidity;BME280_pressure;Samples;Min_cycle;Max_cycle;Signal;HPM_P1;HPM_P2
2021/04/12 00:05:45;;;;;;;13.23;7.72;;;;;;;3.79;100.00;100684.78;20834610;28;20041;-71
2021/04/12 00:15:52;;;;;;;10.65;5.72;;;;;;;3.57;100.00;100707.69;20833520;28;20052;-72
2021/04/12 00:26:06;;;;;;;8.60;5.15;;;;;;;3.58;100.00;100714.56;20832476;28;20050;-72
2021/04/12 00:36:11;;;;;;;9.27;5.45;;;;;;;3.58;100.00;100726.66;20831483;28;20037;-71
2021/04/12 00:46:50;;;;;;;9.20;6.07;;;;;;;3.61;100.00;100727.44;20830024;28;20049;-73
2021/04/12 00:56:59;;;;;;;10.18;5.40;;;;;;;3.72;100.00;100742.75;20830120;28;20046;-71
2021/04/12 01:07:53;;;;;;;11.05;5.65;;;;;;;3.66;100.00;100741.13;20829049;28;20053;-72
2021/04/12 01:18:27;;;;;;;8.88;4.50;;;;;;;3.55;100.00;100762.97;20828411;28;20775;-72
2021/04/12 01:29:04;;;;;;;10.65;5.20;;;;;;;3.39;100.00;100778.78;20827416;28;20630;-72
2021/04/12 01:39:40;;;;;;;9.25;5.53;;;;;;;3.43;100.00;100795.09;20826278;28;20045;-72
2021/04/12 01:49:59;;;;;;;14.00;6.57;;;;;;;3.30;100.00;100809.16;20826091;28;20053;-72
2021/04/12 02:00:17;;;;;;;13.82;7.57;;;;;;;3.24;100.00;100817.00;20825631;28;20497;-71
2021/04/12 02:10:56;;;;;;;17.27;8.90;;;;;;;3.14;100.00;100829.25;20823751;28;20045;-73
2021/04/12 02:21:19;;;;;;;16.35;8.65;;;;;;;2.98;100.00;100851.06;20823443;28;20050;-72
2021/04/12 02:31:48;;;;;;;15.25;8.20;;;;;;;2.86;100.00;100859.84;20822328;28;20405;-71
2021/04/12 02:42:28;;;;;;;15.27;8.05;;;;;;;2.76;100.00;100872.94;20823798;28;20140;-71
2021/04/12 02:52:50;;;;;;;16.45;7.78;;;;;;;2.77;100.00;100872.94;20818036;28;20100;-71
2021/04/12 03:02:51;;;;;;;15.82;8.32;;;;;;;2.74;100.00;100900.56;20819643;28;20050;-71
2021/04/12 03:13:14;;;;;;;16.15;8.85;;;;;;;2.72;100.00;100922.97;20820285;28;20061;-71
2021/04/12 03:23:36;;;;;;;20.13;10.63;;;;;;;2.70;100.00;100929.88;20820072;28;20551;-71
2021/04/12 03:33:52;;;;;;;22.50;11.27;;;;;;;2.68;100.00;100942.84;20818961;28;20049;-71
2021/04/12 03:44:10;;;;;;;19.02;11.45;;;;;;;2.81;100.00;100948.69;20819320;28;20053;-71
2021/04/12 03:54:22;;;;;;;20.88;10.82;;;;;;;2.88;100.00;100958.94;20817972;28;20412;-72
2021/04/12 04:04:23;;;;;;;21.63;11.27;;;;;;;2.94;100.00;100960.59;20817395;28;20049;-72
2021/04/12 04:14:48;;;;;;;21.38;11.70;;;;;;;2.95;100.00;100967.44;20818206;28;20079;-72
2021/04/12 04:25:13;;;;;;;24.42;11.70;;;;;;;2.88;100.00;100991.69;20818657;28;20041;-72
2021/04/12 04:35:29;;;;;;;24.02;11.82;;;;;;;2.99;100.00;101002.75;20829575;28;20045;-72
2021/04/12 04:46:13;;;;;;;24.90;13.77;;;;;;;3.03;100.00;101019.91;20833618;28;20136;-71
2021/04/12 04:56:26;;;;;;;24.95;12.82;;;;;;;2.94;100.00;101040.72;20831485;28;20056;-71
2021/04/12 05:06:44;;;;;;;26.98;13.00;;;;;;;2.95;100.00;101035.53;20831112;28;20104;-72
2021/04/12 05:17:07;;;;;;;24.70;12.00;;;;;;;2.92;100.00;101055.41;20829818;28;20096;-71
2021/04/12 05:27:45;;;;;;;21.40;11.48;;;;;;;2.90;100.00;101075.22;20849167;23;20056;-69
2021/04/12 05:38:01;;;;;;;25.90;12.35;;;;;;;3.12;100.00;101088.75;20827593;28;20045;-69
2021/04/12 05:48:17;;;;;;;24.55;12.13;;;;;;;3.29;100.00;101102.34;20827244;28;20107;-68
2021/04/12 05:58:30;;;;;;;24.00;11.68;;;;;;;3.36;100.00;101120.34;20826566;28;20100;-69
2021/04/12 06:08:47;;;;;;;21.80;12.30;;;;;;;3.62;100.00;101137.22;20825727;28;20104;-69
2021/04/12 06:19:19;;;;;;;19.65;11.57;;;;;;;3.91;100.00;101142.88;20831862;28;20464;-69
2021/04/12 06:29:50;;;;;;;23.27;12.07;;;;;;;4.06;100.00;101154.72;20834016;28;20116;-69
2021/04/12 06:40:17;;;;;;;23.48;12.02;;;;;;;4.23;100.00;101163.94;20845773;28;20610;-69
2021/04/12 06:50:49;;;;;;;22.00;12.30;;;;;;;4.55;100.00;101176.34;20822172;28;20061;-69
2021/04/12 07:01:17;;;;;;;19.02;11.50;;;;;;;4.69;100.00;101195.13;20820448;28;20042;-69
2021/04/12 07:11:30;;;;;;;21.05;12.60;;;;;;;5.04;99.14;101214.38;20813276;28;20046;-69
2021/04/12 07:22:04;;;;;;;20.00;10.60;;;;;;;5.05;91.51;101229.91;20821125;28;20555;-69
2021/04/12 07:32:41;;;;;;;19.85;9.77;;;;;;;4.83;90.44;101248.47;20819688;28;20077;-69
2021/04/12 07:43:25;;;;;;;16.20;9.15;;;;;;;5.07;91.96;101263.63;20821223;28;20045;-69
2021/04/12 07:53:44;;;;;;;12.43;7.10;;;;;;;5.44;85.64;101280.22;20819562;28;20049;-69
2021/04/12 08:04:17;;;;;;;14.15;6.10;;;;;;;5.44;78.11;101289.75;20820238;28;20053;-69
2021/04/12 08:14:56;;;;;;;12.07;4.90;;;;;;;5.60;71.35;101280.78;20835439;28;20041;-69
2021/04/12 08:25:21;;;;;;;10.23;5.10;;;;;;;5.85;73.23;101301.91;20834403;28;20049;-69
2021/04/12 08:35:31;;;;;;;12.00;4.77;;;;;;;6.03;69.15;101314.56;20833864;28;20112;-69
2021/04/12 08:46:02;;;;;;;9.02;4.30;;;;;;;6.09;67.65;101316.19;20831428;28;20045;-69
2021/04/12 08:56:15;;;;;;;7.43;2.70;;;;;;;5.95;65.84;101324.25;20831495;28;20444;-69
2021/04/12 09:06:54;;;;;;;12.27;7.50;;;;;;;6.39;61.97;101341.53;20832051;28;20041;-69
2021/04/12 09:17:06;;;;;;;5.85;2.90;;;;;;;6.52;63.45;101336.91;20813183;28;20463;-69
2021/04/12 09:27:22;;;;;;;6.50;2.47;;;;;;;6.93;56.43;101344.59;20830196;28;20507;-69
2021/04/12 09:37:45;;;;;;;22.70;4.40;;;;;;;7.16;56.61;101344.03;20828764;28;20092;-69
2021/04/12 09:47:55;;;;;;;6.47;2.30;;;;;;;6.93;54.90;101351.53;20827699;28;20041;-69
2021/04/12 09:58:05;;;;;;;4.88;1.83;;;;;;;8.18;50.94;101338.66;20827834;28;20065;-69
2021/04/12 10:08:18;;;;;;;6.18;2.20;;;;;;;7.73;53.78;101350.31;20826277;28;20057;-69
2021/04/12 10:18:45;;;;;;;9.52;2.53;;;;;;;7.07;55.44;101362.47;20825482;28;20476;-69
2021/04/12 10:28:53;;;;;;;7.18;2.38;;;;;;;6.78;57.33;101350.16;20823579;28;20042;-68
2021/04/12 10:39:03;;;;;;;4.22;1.90;;;;;;;7.44;53.23;101357.19;20823275;28;20041;-69
2021/04/12 10:49:19;;;;;;;4.20;1.70;;;;;;;7.64;48.91;101340.16;20822985;28;20049;-69
2021/04/12 10:59:48;;;;;;;5.57;1.90;;;;;;;7.64;50.34;101339.28;20822455;28;20092;-69
2021/04/12 11:09:56;;;;;;;5.13;1.80;;;;;;;8.04;48.51;101342.50;20821747;28;20049;-69
2021/04/12 11:20:12;;;;;;;5.55;1.70;;;;;;;8.40;47.71;101340.59;20821961;28;20523;-69
2021/04/12 11:30:15;;;;;;;5.33;1.57;;;;;;;7.76;49.28;101348.53;20820262;28;20049;-70
2021/04/12 11:40:21;;;;;;;6.32;2.10;;;;;;;7.68;48.77;101341.78;20820578;28;20088;-69
2021/04/12 11:50:31;;;;;;;5.53;2.08;;;;;;;8.54;47.78;101340.16;20822032;28;20042;-67
2021/04/12 12:00:51;;;;;;;4.82;2.00;;;;;;;7.84;48.63;101351.78;20823234;28;20052;-68
2021/04/12 12:11:12;;;;;;;5.20;1.60;;;;;;;9.22;46.23;101340.56;20839635;28;20046;-68
2021/04/12 12:21:21;;;;;;;5.22;1.90;;;;;;;9.03;45.62;101355.16;20835765;28;20076;-68
2021/04/12 12:31:36;;;;;;;5.00;1.50;;;;;;;9.20;46.12;101341.50;20818034;28;20060;-68
2021/04/12 12:41:43;;;;;;;5.68;2.38;;;;;;;8.50;47.20;101349.84;20817585;28;20057;-68
2021/04/12 12:51:51;;;;;;;4.20;1.50;;;;;;;8.81;46.31;101347.13;20820836;28;20052;-68
2021/04/12 13:01:54;;;;;;;3.45;1.30;;;;;;;8.99;40.82;101330.00;20831097;28;20053;-68
2021/04/12 13:12:00;;;;;;;2.75;1.23;;;;;;;9.11;41.99;101332.22;20829981;28;20041;-68
2021/04/12 13:22:02;;;;;;;3.40;1.20;;;;;;;8.47;45.90;101349.94;20828660;28;20096;-68
2021/04/12 13:32:13;;;;;;;4.80;1.50;;;;;;;7.23;60.61;101354.25;20828650;28;20041;-69
2021/04/12 13:42:50;;;;;;;4.03;1.45;;;;;;;7.88;62.49;101348.19;20827888;28;20054;-69
2021/04/12 13:52:55;;;;;;;3.67;1.30;;;;;;;7.96;56.83;101357.50;20797110;28;20050;-70
2021/04/12 14:03:00;;;;;;;;;;;;;;;8.61;57.86;101348.66;20826535;28;20420;-69
2021/04/12 14:13:21;;;;;;;3.22;1.25;;;;;;;9.16;54.92;101339.91;20826558;28;19921;-69
2021/04/12 14:23:28;;;;;;;2.33;1.08;;;;;;;9.24;49.10;101338.78;20824558;28;20355;-68
2021/04/12 14:33:33;;;;;;;3.08;1.23;;;;;;;8.75;46.66;101349.09;20823147;28;20045;-68
2021/04/12 14:43:44;;;;;;;3.40;1.37;;;;;;;8.76;43.21;101350.78;20822947;28;20080;-68
2021/04/12 14:53:49;;;;;;;3.00;1.10;;;;;;;9.18;42.45;101351.19;20822925;28;20124;-68
2021/04/12 15:03:53;;;;;;;4.87;1.30;;;;;;;8.84;41.62;101357.47;20819515;28;20069;-68
2021/04/12 15:13:56;;;;;;;3.97;1.50;;;;;;;8.64;41.63;101351.16;20822558;28;20046;-68
2021/04/12 15:24:05;;;;;;;2.38;1.02;;;;;;;8.88;44.98;101363.47;20823221;28;20046;-68
2021/04/12 15:34:11;;;;;;;3.30;1.00;;;;;;;8.97;43.03;101365.78;20817918;28;20386;-68
2021/04/12 15:44:20;;;;;;;2.95;1.00;;;;;;;8.96;39.86;101374.50;20820954;28;20501;-68
2021/04/12 15:54:27;;;;;;;1.90;0.73;;;;;;;9.11;41.43;101384.47;20815605;28;20469;-68
2021/04/12 16:04:44;;;;;;;6.18;2.90;;;;;;;8.94;39.62;101382.38;20814626;28;20049;-68
2021/04/12 16:14:55;;;;;;;3.75;1.30;;;;;;;8.67;40.15;101380.66;20814655;28;20498;-68
2021/04/12 16:25:09;;;;;;;3.75;1.13;;;;;;;8.89;40.98;101388.66;20796333;28;562523;-68
2021/04/12 16:35:13;;;;;;;3.22;1.60;;;;;;;9.02;39.80;101387.38;20832165;28;20041;-68
2021/04/12 16:45:22;;;;;;;1.55;0.75;;;;;;;9.06;39.23;101383.75;20831904;28;20053;-68
2021/04/12 16:55:53;;;;;;;1.88;0.70;;;;;;;8.76;40.22;101397.78;20832406;28;20100;-68
2021/04/12 17:06:06;;;;;;;5.38;2.15;;;;;;;8.69;44.61;101407.53;20830224;28;20045;-67
2021/04/12 17:16:29;;;;;;;5.40;2.10;;;;;;;8.15;49.44;101410.00;20829961;28;20049;-68
2021/04/12 17:26:49;;;;;;;3.88;1.88;;;;;;;8.11;49.40;101414.44;20828943;28;20053;-68
2021/04/12 17:36:58;;;;;;;7.40;2.50;;;;;;;7.66;51.86;101421.75;20827859;28;20048;-68
2021/04/12 17:47:07;;;;;;;4.85;2.15;;;;;;;7.36;55.11;101432.94;20827513;28;20508;-68
2021/04/12 17:57:25;;;;;;;6.03;2.65;;;;;;;7.11;54.90;101447.44;20826702;28;20060;-67
2021/04/12 18:07:33;;;;;;;9.75;4.97;;;;;;;7.11;55.39;101450.03;20825599;28;20037;-68
2021/04/12 18:18:24;;;;;;;10.32;5.25;;;;;;;6.92;56.43;101456.53;20823339;28;20505;-67
2021/04/12 18:28:50;;;;;;;8.48;4.80;;;;;;;6.82;56.96;101456.75;20813670;28;20045;-67
2021/04/12 18:39:02;;;;;;;10.98;4.80;;;;;;;6.63;62.11;101470.19;20822595;28;20049;-68
2021/04/12 18:49:35;;;;;;;6.00;2.42;;;;;;;6.48;64.04;101489.56;20822270;28;20049;-69
2021/04/12 19:00:13;;;;;;;4.78;2.05;;;;;;;6.28;64.25;101504.69;20814211;28;20053;-69
2021/04/12 19:10:35;;;;;;;10.35;4.65;;;;;;;5.99;64.93;101503.47;20820796;28;20046;-69
2021/04/12 19:20:56;;;;;;;5.25;2.35;;;;;;;5.72;66.09;101509.13;20739870;28;20100;-70
2021/04/12 19:30:57;;;;;;;5.32;2.28;;;;;;;5.28;71.76;101521.94;20737921;28;20398;-70
2021/04/12 19:41:14;;;;;;;4.63;1.90;;;;;;;4.87;71.17;101525.97;20738236;28;20129;-70
2021/04/12 19:51:15;;;;;;;6.78;3.40;;;;;;;5.01;68.18;101537.00;20737915;28;20046;-70
2021/04/12 20:01:24;;;;;;;6.00;3.17;;;;;;;4.80;67.21;101549.38;20741188;28;20050;-70
2021/04/12 20:11:37;;;;;;;6.80;3.30;;;;;;;4.69;67.02;101552.09;20761606;28;20044;-70
2021/04/12 20:21:41;;;;;;;7.60;3.70;;;;;;;4.54;68.96;101552.28;20851324;28;20448;-70
2021/04/12 20:31:59;;;;;;;6.60;3.20;;;;;;;4.25;73.13;101555.19;20861205;28;20369;-70
2021/04/12 20:42:06;;;;;;;7.88;3.47;;;;;;;3.85;73.96;101565.03;20833661;28;20080;-70
2021/04/12 20:52:16;;;;;;;5.82;2.38;;;;;;;3.59;75.56;101557.47;20833279;28;20049;-70
2021/04/12 21:02:33;;;;;;;6.30;2.65;;;;;;;3.42;77.21;101556.72;20831545;28;20559;-69
2021/04/12 21:12:40;;;;;;;6.03;2.70;;;;;;;3.20;78.99;101555.97;20830236;28;20077;-70
2021/04/12 21:22:45;;;;;;;6.00;2.88;;;;;;;2.92;79.58;101555.28;20829555;28;20136;-70
2021/04/12 21:32:51;;;;;;;;;;;;;;;2.82;81.47;101555.31;20829785;28;20464;-70
2021/04/12 21:43:03;;;;;;;6.40;3.03;;;;;;;2.80;82.77;101570.81;20828500;28;19921;-70
2021/04/12 21:53:26;;;;;;;7.97;3.60;;;;;;;2.72;82.74;101576.88;20827503;28;20108;-70
2021/04/12 22:03:33;;;;;;;6.95;3.42;;;;;;;2.56;83.40;101579.53;20809440;28;20054;-70
2021/04/12 22:13:43;;;;;;;10.55;3.63;;;;;;;2.34;85.02;101575.25;20812947;28;20464;-70
2021/04/12 22:24:03;;;;;;;6.30;3.65;;;;;;;2.17;86.01;101577.03;20823972;28;20057;-70
2021/04/12 22:44:54;;;;;;;7.55;3.90;;;;;;;2.06;89.39;101571.00;20823055;28;20393;-69
2021/04/12 22:55:01;;;;;;;9.20;4.55;;;;;;;1.97;89.40;101586.50;20821977;28;20456;-70
2021/04/12 23:05:07;;;;;;;7.20;4.28;;;;;;;1.82;91.53;101589.06;20820413;28;20049;-70
2021/04/12 23:15:13;;;;;;;6.45;3.28;;;;;;;1.72;90.85;101593.38;20802850;28;20084;-70
2021/04/12 23:25:19;;;;;;;;;;;;;;;1.46;92.17;101606.22;20820221;28;20095;-70
2021/04/12 23:35:25;;;;;;;8.70;4.18;;;;;;;1.39;93.53;101607.06;20819462;28;19979;-70
2021/04/12 23:45:29;;;;;;;8.98;4.57;;;;;;;1.25;93.70;101604.44;20818836;28;20054;-70
2021/04/12 23:55:42;;;;;;;11.43;5.10;;;;;;;1.08;93.66;101605.25;20818756;28;20108;-70
